createdAt,value
2018-09-29T00:00:42.905Z,50.46
2018-09-29T00:01:46.344Z,50.96
2018-09-29T00:02:49.771Z,50.57
2018-09-29T00:03:53.228Z,50.46
2018-09-29T00:04:56.680Z,50.42
2018-09-29T00:06:00.128Z,50.81
2018-09-29T00:07:03.626Z,50.81
2018-09-29T00:08:07.513Z,51.09
2018-09-29T00:09:12.307Z,51.19
2018-09-29T00:10:15.783Z,51.32
2018-09-29T00:11:19.240Z,51.53
2018-09-29T00:12:22.759Z,51.22
2018-09-29T00:13:26.227Z,51.36
2018-09-29T00:14:29.679Z,51.69
2018-09-29T00:15:33.094Z,51.79
2018-09-29T00:16:36.851Z,52.07
2018-09-29T00:17:40.278Z,51.83
2018-09-29T00:18:43.752Z,52.00
2018-09-29T00:19:47.144Z,52.29
2018-09-29T00:20:50.651Z,51.97
2018-09-29T00:21:54.088Z,52.37
2018-09-29T00:22:57.496Z,52.40
2018-09-29T00:24:01.094Z,52.54
2018-09-29T00:25:04.575Z,52.74
2018-09-29T00:26:08.083Z,53.32
2018-09-29T00:27:11.545Z,52.83
2018-09-29T00:28:14.986Z,53.68
2018-09-29T00:29:18.456Z,53.38
2018-09-29T00:30:21.934Z,53.29
2018-09-29T00:31:25.358Z,53.32
2018-09-29T00:32:28.797Z,53.35
2018-09-29T00:33:32.205Z,53.02
2018-09-29T00:34:35.642Z,52.30
2018-09-29T00:35:39.060Z,52.28
2018-09-29T00:36:42.495Z,52.00
2018-09-29T00:37:45.916Z,51.54
2018-09-29T00:38:49.321Z,51.74
2018-09-29T00:39:52.731Z,51.71
2018-09-29T00:40:56.281Z,51.31
2018-09-29T00:41:59.689Z,51.37
2018-09-29T00:43:03.176Z,51.34
2018-09-29T00:44:06.598Z,51.55
2018-09-29T00:45:10.102Z,51.83
2018-09-29T00:46:13.499Z,51.51
2018-09-29T00:47:16.949Z,51.99
2018-09-29T00:48:20.367Z,51.83
2018-09-29T00:49:23.822Z,51.37
2018-09-29T00:50:27.275Z,51.98
2018-09-29T00:51:30.657Z,51.75
2018-09-29T00:52:34.067Z,52.20
2018-09-29T00:53:37.450Z,52.13
2018-09-29T00:54:40.862Z,52.31
2018-09-29T00:55:44.320Z,51.83
2018-09-29T00:56:47.849Z,51.44
2018-09-29T00:57:51.242Z,51.61
2018-09-29T00:58:54.732Z,51.84
2018-09-29T00:59:58.130Z,51.65
2018-09-29T01:01:01.570Z,51.39
2018-09-29T01:02:04.998Z,51.32
2018-09-29T01:03:08.433Z,51.57
2018-09-29T01:04:11.850Z,51.36
2018-09-29T01:05:15.321Z,51.40
2018-09-29T01:06:18.822Z,51.78
2018-09-29T01:07:22.253Z,51.22
2018-09-29T01:08:25.686Z,51.37
2018-09-29T01:09:29.213Z,51.13
2018-09-29T01:10:32.719Z,51.60
2018-09-29T01:11:36.314Z,51.46
2018-09-29T01:12:39.891Z,51.56
2018-09-29T01:13:43.418Z,51.69
2018-09-29T01:14:46.898Z,51.63
2018-09-29T01:15:50.400Z,51.09
2018-09-29T01:16:54.495Z,50.93
2018-09-29T01:17:57.906Z,50.78
2018-09-29T01:19:01.359Z,51.33
2018-09-29T01:20:04.996Z,51.07
2018-09-29T01:21:09.917Z,51.21
2018-09-29T01:22:13.399Z,51.56
2018-09-29T01:23:16.956Z,51.50
2018-09-29T01:24:20.350Z,51.44
2018-09-29T01:25:23.796Z,51.60
2018-09-29T01:26:27.276Z,51.94
2018-09-29T01:27:30.724Z,51.58
2018-09-29T01:28:34.397Z,51.42
2018-09-29T01:29:37.955Z,52.42
2018-09-29T01:30:41.466Z,51.52
2018-09-29T01:31:45.050Z,52.26
2018-09-29T01:32:48.523Z,52.33
2018-09-29T01:33:51.950Z,52.29
2018-09-29T01:34:56.277Z,52.89
2018-09-29T01:35:59.713Z,52.54
2018-09-29T01:37:03.134Z,52.90
2018-09-29T01:38:06.601Z,52.84
2018-09-29T01:39:11.207Z,52.41
2018-09-29T01:40:14.684Z,52.59
2018-09-29T01:41:18.095Z,52.71
2018-09-29T01:42:21.546Z,52.15
2018-09-29T01:43:25.035Z,52.73
2018-09-29T01:44:28.480Z,52.55
2018-09-29T01:45:31.929Z,52.39
2018-09-29T01:46:35.572Z,52.71
2018-09-29T01:47:38.982Z,52.26
2018-09-29T01:48:42.379Z,52.87
2018-09-29T01:49:45.783Z,52.43
2018-09-29T01:50:49.250Z,52.59
2018-09-29T01:51:52.679Z,52.71
2018-09-29T01:52:56.158Z,52.68
2018-09-29T01:53:59.944Z,52.18
2018-09-29T01:55:03.414Z,52.53
2018-09-29T01:56:06.902Z,52.97
2018-09-29T01:57:10.321Z,53.06
2018-09-29T01:58:13.758Z,53.18
2018-09-29T01:59:17.231Z,53.07
2018-09-29T02:00:20.657Z,52.81
2018-09-29T02:01:24.147Z,53.44
2018-09-29T02:02:27.574Z,53.18
2018-09-29T02:03:31.072Z,53.33
2018-09-29T02:04:34.486Z,53.26
2018-09-29T02:05:38.187Z,53.27
2018-09-29T02:06:41.669Z,53.01
2018-09-29T02:07:45.762Z,53.51
2018-09-29T02:08:49.212Z,53.44
2018-09-29T02:09:52.862Z,53.01
2018-09-29T02:10:56.309Z,53.04
2018-09-29T02:11:59.763Z,53.07
2018-09-29T02:13:03.210Z,52.85
2018-09-29T02:14:06.645Z,53.12
2018-09-29T02:15:10.114Z,52.67
2018-09-29T02:16:13.550Z,53.10
2018-09-29T02:17:17.146Z,53.14
2018-09-29T02:18:20.718Z,52.90
2018-09-29T02:19:24.140Z,53.15
2018-09-29T02:20:27.869Z,52.68
2018-09-29T02:21:31.315Z,53.02
2018-09-29T02:22:34.730Z,53.13
2018-09-29T02:23:38.227Z,53.35
2018-09-29T02:24:41.856Z,53.65
2018-09-29T02:25:45.397Z,53.56
2018-09-29T02:26:48.822Z,52.91
2018-09-29T02:27:52.254Z,53.49
2018-09-29T02:28:55.730Z,53.84
2018-09-29T02:29:59.134Z,53.67
2018-09-29T02:31:02.582Z,53.83
2018-09-29T02:32:06.032Z,53.97
2018-09-29T02:33:09.450Z,53.37
2018-09-29T02:34:12.931Z,54.10
2018-09-29T02:35:16.366Z,53.60
2018-09-29T02:36:19.830Z,54.24
2018-09-29T02:37:23.277Z,53.68
2018-09-29T02:38:26.707Z,54.05
2018-09-29T02:39:30.174Z,54.03
2018-09-29T02:40:33.576Z,53.47
2018-09-29T02:41:37.024Z,53.75
2018-09-29T02:42:40.497Z,53.98
2018-09-29T02:43:43.982Z,53.22
2018-09-29T02:44:47.459Z,53.09
2018-09-29T02:45:50.967Z,53.55
2018-09-29T02:46:54.467Z,53.70
2018-09-29T02:47:57.924Z,53.54
2018-09-29T02:49:01.387Z,53.29
2018-09-29T02:50:05.364Z,53.49
2018-09-29T02:51:08.816Z,53.56
2018-09-29T02:52:12.340Z,53.58
2018-09-29T02:53:15.835Z,53.18
2018-09-29T02:54:19.260Z,53.84
2018-09-29T02:55:22.675Z,53.75
2018-09-29T02:56:26.219Z,53.57
2018-09-29T02:57:29.672Z,53.17
2018-09-29T02:58:33.133Z,54.11
2018-09-29T02:59:36.547Z,53.42
2018-09-29T03:00:39.960Z,53.65
2018-09-29T03:01:43.465Z,53.53
2018-09-29T03:02:46.895Z,54.21
2018-09-29T03:03:50.353Z,53.68
2018-09-29T03:04:54.072Z,54.09
2018-09-29T03:05:57.528Z,54.50
2018-09-29T03:07:00.965Z,54.31
2018-09-29T03:08:04.442Z,54.13
2018-09-29T03:09:08.793Z,54.04
2018-09-29T03:10:12.247Z,54.75
2018-09-29T03:11:16.488Z,54.27
2018-09-29T03:12:20.141Z,54.42
2018-09-29T03:13:23.622Z,54.67
2018-09-29T03:14:27.080Z,54.90
2018-09-29T03:15:30.528Z,55.04
2018-09-29T03:16:33.960Z,55.04
2018-09-29T03:17:37.553Z,54.75
2018-09-29T03:18:41.045Z,54.23
2018-09-29T03:19:44.510Z,54.47
2018-09-29T03:20:47.988Z,54.29
2018-09-29T03:21:51.411Z,54.28
2018-09-29T03:22:54.900Z,54.34
2018-09-29T03:23:58.339Z,54.11
2018-09-29T03:25:01.801Z,53.75
2018-09-29T03:26:05.326Z,53.76
2018-09-29T03:27:08.882Z,54.04
2018-09-29T03:28:12.380Z,54.12
2018-09-29T03:29:15.860Z,54.22
2018-09-29T03:30:19.293Z,53.99
2018-09-29T03:31:22.925Z,54.47
2018-09-29T03:32:26.337Z,53.88
2018-09-29T03:33:29.723Z,54.25
2018-09-29T03:34:33.133Z,54.34
2018-09-29T03:35:36.565Z,54.19
2018-09-29T03:36:40.022Z,54.14
2018-09-29T03:37:43.438Z,55.02
2018-09-29T03:38:46.886Z,54.37
2018-09-29T03:39:50.498Z,54.82
2018-09-29T03:40:53.951Z,54.48
2018-09-29T03:41:57.346Z,54.84
2018-09-29T03:43:00.959Z,54.90
2018-09-29T03:44:04.392Z,55.09
2018-09-29T03:45:07.894Z,54.49
2018-09-29T03:46:11.315Z,55.56
2018-09-29T03:47:14.770Z,55.26
2018-09-29T03:48:18.573Z,55.62
2018-09-29T03:49:22.100Z,55.02
2018-09-29T03:50:25.672Z,55.70
2018-09-29T03:51:29.109Z,54.88
2018-09-29T03:52:32.593Z,55.19
2018-09-29T03:53:36.078Z,55.03
2018-09-29T03:54:39.512Z,55.10
2018-09-29T03:55:42.955Z,54.72
2018-09-29T03:56:46.364Z,54.85
2018-09-29T03:57:49.793Z,54.47
2018-09-29T03:58:53.398Z,55.12
2018-09-29T03:59:56.848Z,54.97
2018-09-29T04:01:00.447Z,54.94
2018-09-29T04:02:03.859Z,54.22
2018-09-29T04:03:07.267Z,54.81
2018-09-29T04:04:10.704Z,54.29
2018-09-29T04:05:14.184Z,54.67
2018-09-29T04:06:17.652Z,55.02
2018-09-29T04:07:21.105Z,55.01
2018-09-29T04:08:24.532Z,54.68
2018-09-29T04:09:27.942Z,54.78
2018-09-29T04:10:31.359Z,55.18
2018-09-29T04:11:34.820Z,55.10
2018-09-29T04:12:38.306Z,55.15
2018-09-29T04:13:41.870Z,54.85
2018-09-29T04:14:45.243Z,55.25
2018-09-29T04:15:48.660Z,55.37
2018-09-29T04:16:52.130Z,54.91
2018-09-29T04:17:55.606Z,54.99
2018-09-29T04:18:59.057Z,55.12
2018-09-29T04:20:02.729Z,55.63
2018-09-29T04:21:06.353Z,55.22
2018-09-29T04:22:09.792Z,55.57
2018-09-29T04:23:13.260Z,56.06
2018-09-29T04:24:17.540Z,55.74
2018-09-29T04:25:20.927Z,55.76
2018-09-29T04:26:24.333Z,55.62
2018-09-29T04:27:27.785Z,55.50
2018-09-29T04:28:31.206Z,56.28
2018-09-29T04:29:34.630Z,56.21
2018-09-29T04:30:38.061Z,56.07
2018-09-29T04:31:42.228Z,56.18
2018-09-29T04:32:45.680Z,55.71
2018-09-29T04:33:49.118Z,55.16
2018-09-29T04:34:52.585Z,55.46
2018-09-29T04:35:56.036Z,55.34
2018-09-29T04:36:59.439Z,54.88
2018-09-29T04:38:03.214Z,54.83
2018-09-29T04:39:09.257Z,54.93
2018-09-29T04:40:12.669Z,55.40
2018-09-29T04:41:16.129Z,55.18
2018-09-29T04:42:19.634Z,55.29
2018-09-29T04:43:23.100Z,54.73
2018-09-29T04:44:26.559Z,55.03
2018-09-29T04:45:30.037Z,55.07
2018-09-29T04:46:33.513Z,55.06
2018-09-29T04:47:36.962Z,55.17
2018-09-29T04:48:40.402Z,55.29
2018-09-29T04:49:43.966Z,55.29
2018-09-29T04:50:47.364Z,55.40
2018-09-29T04:51:50.769Z,55.20
2018-09-29T04:52:54.194Z,55.43
2018-09-29T04:53:57.825Z,55.81
2018-09-29T04:55:01.281Z,55.95
2018-09-29T04:56:04.748Z,55.40
2018-09-29T04:57:08.149Z,55.80
2018-09-29T04:58:11.624Z,56.01
2018-09-29T04:59:15.064Z,56.31
2018-09-29T05:00:18.517Z,55.76
2018-09-29T05:01:21.994Z,56.25
2018-09-29T05:02:25.452Z,55.81
2018-09-29T05:03:28.910Z,55.96
2018-09-29T05:04:32.356Z,56.35
2018-09-29T05:05:35.800Z,56.12
2018-09-29T05:06:39.316Z,56.96
2018-09-29T05:07:42.702Z,56.44
2018-09-29T05:08:46.179Z,57.04
2018-09-29T05:09:49.629Z,56.41
2018-09-29T05:10:53.051Z,56.92
2018-09-29T05:11:56.612Z,57.12
2018-09-29T05:13:00.043Z,56.81
2018-09-29T05:14:03.653Z,56.62
2018-09-29T05:15:07.078Z,56.12
2018-09-29T05:16:10.540Z,56.73
2018-09-29T05:17:13.977Z,55.69
2018-09-29T05:18:17.411Z,55.94
2018-09-29T05:19:20.868Z,55.88
2018-09-29T05:20:24.465Z,55.74
2018-09-29T05:21:27.929Z,55.75
2018-09-29T05:22:31.362Z,56.27
2018-09-29T05:23:34.835Z,56.05
2018-09-29T05:24:38.507Z,55.36
2018-09-29T05:25:42.066Z,55.72
2018-09-29T05:26:45.522Z,55.54
2018-09-29T05:27:48.994Z,55.68
2018-09-29T05:28:52.453Z,55.74
2018-09-29T05:29:55.902Z,56.29
2018-09-29T05:30:59.506Z,55.40
2018-09-29T05:32:02.929Z,56.28
2018-09-29T05:33:06.349Z,55.73
2018-09-29T05:34:09.891Z,54.73
2018-09-29T05:35:13.321Z,51.95
2018-09-29T05:36:16.738Z,52.39
2018-09-29T05:37:20.177Z,51.81
2018-09-29T05:38:23.701Z,51.60
2018-09-29T05:39:27.419Z,48.98
2018-09-29T05:40:30.871Z,49.91
2018-09-29T05:41:34.275Z,48.81
2018-09-29T05:42:37.718Z,48.95
2018-09-29T05:43:41.162Z,48.20
2018-09-29T05:44:44.644Z,48.89
2018-09-29T05:45:48.090Z,53.67
2018-09-29T05:46:52.293Z,52.29
2018-09-29T05:47:55.719Z,50.48
2018-09-29T05:48:59.235Z,48.13
2018-09-29T05:50:02.887Z,47.45
2018-09-29T05:51:06.400Z,46.22
2018-09-29T05:52:09.860Z,47.30
2018-09-29T05:53:13.324Z,47.18
2018-09-29T05:54:16.768Z,45.37
2018-09-29T05:55:20.223Z,45.65
2018-09-29T05:56:23.810Z,45.73
2018-09-29T05:57:27.252Z,45.65
2018-09-29T05:58:30.720Z,46.11
2018-09-29T05:59:34.142Z,45.62
2018-09-29T06:00:37.647Z,46.18
2018-09-29T06:01:41.040Z,45.86
2018-09-29T06:02:44.492Z,46.07
2018-09-29T06:03:48.589Z,46.11
2018-09-29T06:04:52.012Z,45.45
2018-09-29T06:05:55.715Z,45.18
2018-09-29T06:06:59.211Z,42.77
2018-09-29T06:08:02.685Z,43.95
2018-09-29T06:09:08.493Z,44.72
2018-09-29T06:10:12.018Z,45.54
2018-09-29T06:11:15.846Z,43.36
2018-09-29T06:12:19.581Z,44.00
2018-09-29T06:13:23.164Z,44.68
2018-09-29T06:14:26.693Z,45.12
2018-09-29T06:15:30.259Z,44.49
2018-09-29T06:16:33.731Z,44.59
2018-09-29T06:17:37.185Z,44.50
2018-09-29T06:18:40.637Z,44.85
2018-09-29T06:19:44.302Z,45.14
2018-09-29T06:20:47.761Z,45.47
2018-09-29T06:21:51.202Z,46.65
2018-09-29T06:22:54.713Z,47.24
2018-09-29T06:23:58.165Z,48.21
2018-09-29T06:25:01.580Z,48.05
2018-09-29T06:26:04.999Z,47.88
2018-09-29T06:27:08.402Z,47.67
2018-09-29T06:28:11.892Z,47.67
2018-09-29T06:29:15.356Z,46.71
2018-09-29T06:30:19.297Z,47.19
2018-09-29T06:31:22.755Z,47.16
2018-09-29T06:32:26.334Z,46.98
2018-09-29T06:33:29.836Z,46.97
2018-09-29T06:34:33.363Z,46.95
2018-09-29T06:35:36.807Z,46.92
2018-09-29T06:36:40.311Z,46.87
2018-09-29T06:37:43.752Z,46.26
2018-09-29T06:38:47.320Z,46.06
2018-09-29T06:39:50.727Z,45.92
2018-09-29T06:40:54.155Z,46.02
2018-09-29T06:41:57.567Z,45.53
2018-09-29T06:43:01.084Z,44.90
2018-09-29T06:44:04.630Z,45.47
2018-09-29T06:45:08.143Z,45.46
2018-09-29T06:46:11.634Z,45.23
2018-09-29T06:47:15.189Z,45.29
2018-09-29T06:48:18.851Z,44.73
2018-09-29T06:49:22.325Z,45.32
2018-09-29T06:50:25.812Z,45.27
2018-09-29T06:51:29.279Z,44.95
2018-09-29T06:52:32.760Z,45.11
2018-09-29T06:53:36.321Z,45.03
2018-09-29T06:54:39.830Z,45.13
2018-09-29T06:55:43.248Z,45.33
2018-09-29T06:56:46.679Z,45.19
2018-09-29T06:57:50.146Z,44.88
2018-09-29T06:58:53.586Z,44.96
2018-09-29T06:59:57.202Z,44.87
2018-09-29T07:01:00.621Z,44.99
2018-09-29T07:02:04.079Z,45.36
2018-09-29T07:03:07.581Z,44.93
2018-09-29T07:04:10.961Z,44.81
2018-09-29T07:05:14.985Z,44.91
2018-09-29T07:06:18.446Z,45.32
2018-09-29T07:07:21.889Z,45.71
2018-09-29T07:08:25.376Z,45.55
2018-09-29T07:09:28.778Z,45.34
2018-09-29T07:10:32.230Z,45.37
2018-09-29T07:11:35.645Z,45.13
2018-09-29T07:12:39.106Z,45.43
2018-09-29T07:13:42.531Z,45.25
2018-09-29T07:14:45.954Z,45.06
2018-09-29T07:15:49.407Z,45.53
2018-09-29T07:16:52.909Z,45.04
2018-09-29T07:17:56.389Z,45.53
2018-09-29T07:18:59.776Z,45.06
2018-09-29T07:20:03.261Z,45.54
2018-09-29T07:21:06.746Z,45.49
2018-09-29T07:22:10.180Z,45.30
2018-09-29T07:23:13.616Z,45.17
2018-09-29T07:24:17.302Z,45.68
2018-09-29T07:25:20.942Z,45.85
2018-09-29T07:26:24.446Z,45.83
2018-09-29T07:27:28.078Z,46.04
2018-09-29T07:28:31.514Z,46.01
2018-09-29T07:29:34.930Z,45.63
2018-09-29T07:30:38.478Z,45.88
2018-09-29T07:31:41.970Z,45.76
2018-09-29T07:32:45.811Z,45.56
2018-09-29T07:33:49.328Z,45.63
2018-09-29T07:34:52.753Z,45.04
2018-09-29T07:35:56.203Z,46.04
2018-09-29T07:36:59.745Z,46.03
2018-09-29T07:38:03.159Z,46.04
2018-09-29T07:39:08.811Z,45.77
2018-09-29T07:40:12.292Z,45.95
2018-09-29T07:41:15.868Z,45.97
2018-09-29T07:42:20.437Z,45.95
2018-09-29T07:43:27.625Z,46.27
2018-09-29T07:44:31.103Z,46.34
2018-09-29T07:45:34.587Z,46.19
2018-09-29T07:46:38.133Z,46.60
2018-09-29T07:47:41.742Z,46.36
2018-09-29T07:48:45.325Z,46.33
2018-09-29T07:49:48.917Z,46.00
2018-09-29T07:50:53.220Z,46.22
2018-09-29T07:51:56.730Z,46.46
2018-09-29T07:53:00.308Z,45.68
2018-09-29T07:54:03.899Z,45.92
2018-09-29T07:55:07.410Z,45.70
2018-09-29T07:56:10.975Z,45.45
2018-09-29T07:57:15.151Z,45.94
2018-09-29T07:58:18.621Z,45.73
2018-09-29T07:59:22.089Z,46.23
2018-09-29T08:00:25.504Z,46.25
2018-09-29T08:01:28.948Z,46.46
2018-09-29T08:02:32.486Z,45.96
2018-09-29T08:03:35.993Z,46.11
2018-09-29T08:04:39.427Z,46.69
2018-09-29T08:05:42.991Z,46.42
2018-09-29T08:06:46.572Z,46.05
2018-09-29T08:07:50.365Z,46.08
2018-09-29T08:08:53.944Z,46.11
2018-09-29T08:09:57.369Z,46.59
2018-09-29T08:11:00.834Z,46.35
2018-09-29T08:12:04.415Z,46.31
2018-09-29T08:13:07.843Z,46.15
2018-09-29T08:14:11.761Z,46.27
2018-09-29T08:15:15.383Z,46.19
2018-09-29T08:16:19.078Z,46.51
2018-09-29T08:17:22.499Z,46.50
2018-09-29T08:18:25.947Z,46.52
2018-09-29T08:19:29.393Z,46.80
2018-09-29T08:20:33.213Z,46.79
2018-09-29T08:21:36.693Z,46.67
2018-09-29T08:22:40.302Z,46.95
2018-09-29T08:23:43.729Z,46.92
2018-09-29T08:24:47.577Z,47.43
2018-09-29T08:25:51.366Z,47.14
2018-09-29T08:26:55.148Z,47.49
2018-09-29T08:27:58.822Z,47.63
2018-09-29T08:29:02.626Z,47.89
2018-09-29T08:30:06.535Z,47.72
2018-09-29T08:31:10.076Z,47.30
2018-09-29T08:32:14.032Z,47.64
2018-09-29T08:33:17.585Z,47.49
2018-09-29T08:34:21.579Z,47.52
2018-09-29T08:35:25.091Z,48.04
2018-09-29T08:36:28.831Z,48.23
2018-09-29T08:37:32.462Z,48.34
2018-09-29T08:38:36.162Z,47.99
2018-09-29T08:39:39.866Z,48.20
2018-09-29T08:40:44.530Z,48.25
2018-09-29T08:41:48.169Z,47.83
2018-09-29T08:42:51.635Z,48.25
2018-09-29T08:43:55.493Z,47.82
2018-09-29T08:44:59.061Z,47.64
2018-09-29T08:46:02.674Z,47.85
2018-09-29T08:47:06.511Z,47.64
2018-09-29T08:48:10.078Z,47.63
2018-09-29T08:49:13.626Z,47.53
2018-09-29T08:50:17.563Z,47.61
2018-09-29T08:51:21.127Z,48.00
2018-09-29T08:52:24.874Z,47.45
2018-09-29T08:53:28.519Z,47.71
2018-09-29T08:54:32.381Z,47.99
2018-09-29T08:55:35.829Z,47.79
2018-09-29T08:56:39.436Z,47.49
2018-09-29T08:57:43.003Z,47.62
2018-09-29T08:58:46.454Z,48.12
2018-09-29T08:59:49.926Z,48.30
2018-09-29T09:00:53.343Z,48.03
2018-09-29T09:01:56.808Z,48.20
2018-09-29T09:03:00.265Z,48.05
2018-09-29T09:04:03.831Z,48.09
2018-09-29T09:05:07.292Z,48.28
2018-09-29T09:06:10.757Z,48.54
2018-09-29T09:07:14.213Z,48.86
2018-09-29T09:08:17.937Z,48.26
2018-09-29T09:09:21.377Z,48.47
2018-09-29T09:10:24.897Z,48.79
2018-09-29T09:11:28.391Z,48.72
2018-09-29T09:12:31.921Z,48.87
2018-09-29T09:13:35.598Z,48.88
2018-09-29T09:14:39.013Z,48.53
2018-09-29T09:15:42.505Z,49.16
2018-09-29T09:16:46.022Z,49.19
2018-09-29T09:17:49.443Z,48.64
2018-09-29T09:18:52.839Z,49.06
2018-09-29T09:19:56.266Z,48.86
2018-09-29T09:20:59.735Z,49.54
2018-09-29T09:22:03.201Z,49.60
2018-09-29T09:23:06.879Z,49.29
2018-09-29T09:24:10.354Z,49.43
2018-09-29T09:25:13.895Z,49.36
2018-09-29T09:26:17.360Z,49.55
2018-09-29T09:27:20.847Z,49.16
2018-09-29T09:28:24.493Z,49.86
2018-09-29T09:29:28.131Z,49.87
2018-09-29T09:30:31.594Z,48.92
2018-09-29T09:31:35.231Z,49.14
2018-09-29T09:32:38.784Z,49.31
2018-09-29T09:33:42.262Z,48.59
2018-09-29T09:34:46.170Z,49.24
2018-09-29T09:35:49.578Z,49.00
2018-09-29T09:36:53.117Z,49.09
2018-09-29T09:37:56.674Z,49.06
2018-09-29T09:39:00.212Z,48.28
2018-09-29T09:40:03.770Z,48.38
2018-09-29T09:41:07.222Z,48.44
2018-09-29T09:42:10.647Z,48.41
2018-09-29T09:43:14.185Z,48.59
2018-09-29T09:44:17.660Z,48.78
2018-09-29T09:45:21.149Z,48.30
2018-09-29T09:46:24.601Z,48.83
2018-09-29T09:47:28.060Z,48.68
2018-09-29T09:48:31.574Z,48.93
2018-09-29T09:49:35.044Z,48.52
2018-09-29T09:50:38.512Z,48.45
2018-09-29T09:51:41.915Z,48.88
2018-09-29T09:52:45.401Z,48.73
2018-09-29T09:53:49.130Z,48.81
2018-09-29T09:54:52.566Z,48.87
2018-09-29T09:55:56.081Z,48.78
2018-09-29T09:56:59.468Z,48.96
2018-09-29T09:58:02.920Z,48.97
2018-09-29T09:59:06.489Z,49.58
2018-09-29T10:00:10.155Z,49.68
2018-09-29T10:01:18.856Z,49.32
2018-09-29T10:02:27.580Z,49.41
2018-09-29T10:03:32.758Z,49.64
2018-09-29T10:04:36.536Z,49.16
2018-09-29T10:05:40.049Z,49.41
2018-09-29T10:06:43.527Z,49.88
2018-09-29T10:07:47.084Z,49.35
2018-09-29T10:08:50.692Z,49.37
2018-09-29T10:09:54.133Z,49.44
2018-09-29T10:10:57.609Z,49.69
2018-09-29T10:12:01.043Z,49.96
2018-09-29T10:13:04.483Z,49.26
2018-09-29T10:14:08.225Z,50.11
2018-09-29T10:15:15.143Z,49.42
2018-09-29T10:16:18.935Z,49.42
2018-09-29T10:17:22.420Z,49.81
2018-09-29T10:18:26.513Z,49.50
2018-09-29T10:19:30.798Z,49.97
2018-09-29T10:20:34.296Z,49.98
2018-09-29T10:21:37.713Z,49.95
2018-09-29T10:22:41.218Z,50.00
2018-09-29T10:23:44.682Z,49.79
2018-09-29T10:24:48.148Z,49.69
2018-09-29T10:25:51.635Z,50.04
2018-09-29T10:26:55.246Z,49.74
2018-09-29T10:27:58.768Z,50.05
2018-09-29T10:29:02.238Z,50.14
2018-09-29T10:30:06.458Z,49.80
2018-09-29T10:31:09.966Z,50.60
2018-09-29T10:32:13.622Z,50.72
2018-09-29T10:33:17.395Z,50.39
2018-09-29T10:34:20.852Z,50.19
2018-09-29T10:35:24.342Z,50.41
2018-09-29T10:36:28.000Z,50.11
2018-09-29T10:37:31.596Z,50.43
2018-09-29T10:38:35.058Z,50.03
2018-09-29T10:39:38.562Z,50.90
2018-09-29T10:40:42.060Z,50.13
2018-09-29T10:41:45.614Z,50.23
2018-09-29T10:42:49.027Z,50.09
2018-09-29T10:43:52.524Z,50.28
2018-09-29T10:44:55.969Z,50.43
2018-09-29T10:45:59.408Z,50.41
2018-09-29T10:47:02.849Z,50.14
2018-09-29T10:48:06.314Z,50.36
2018-09-29T10:49:09.737Z,50.67
2018-09-29T10:50:13.181Z,50.70
2018-09-29T10:51:16.681Z,50.22
2018-09-29T10:52:20.119Z,50.47
2018-09-29T10:53:23.531Z,51.01
2018-09-29T10:54:26.960Z,50.58
2018-09-29T10:55:30.500Z,50.31
2018-09-29T10:56:33.962Z,50.26
2018-09-29T10:57:37.685Z,50.88
2018-09-29T10:58:41.649Z,51.18
2018-09-29T10:59:45.176Z,51.14
2018-09-29T11:00:48.674Z,51.22
2018-09-29T11:01:52.224Z,51.21
2018-09-29T11:02:58.617Z,50.85
2018-09-29T11:04:02.063Z,50.78
2018-09-29T11:05:05.722Z,51.07
2018-09-29T11:06:09.159Z,50.49
2018-09-29T11:07:12.726Z,50.54
2018-09-29T11:08:16.705Z,50.52
2018-09-29T11:09:20.268Z,50.94
2018-09-29T11:10:23.733Z,51.03
2018-09-29T11:11:27.200Z,51.00
2018-09-29T11:12:30.693Z,51.07
2018-09-29T11:13:34.111Z,50.63
2018-09-29T11:14:37.567Z,50.70
2018-09-29T11:15:41.043Z,50.88
2018-09-29T11:16:44.572Z,50.32
2018-09-29T11:17:48.015Z,50.20
2018-09-29T11:18:51.447Z,50.83
2018-09-29T11:19:54.893Z,50.45
2018-09-29T11:20:58.407Z,49.85
2018-09-29T11:22:01.911Z,50.13
2018-09-29T11:23:05.767Z,50.12
2018-09-29T11:24:09.236Z,50.18
2018-09-29T11:25:12.750Z,49.88
2018-09-29T11:26:16.264Z,49.68
2018-09-29T11:27:19.810Z,50.10
2018-09-29T11:28:23.757Z,49.81
2018-09-29T11:29:27.267Z,49.93
2018-09-29T11:30:30.690Z,50.03
2018-09-29T11:31:34.135Z,49.52
2018-09-29T11:32:37.634Z,49.49
2018-09-29T11:33:41.061Z,49.79
2018-09-29T11:34:44.569Z,50.03
2018-09-29T11:35:48.066Z,49.67
2018-09-29T11:36:51.524Z,49.81
2018-09-29T11:37:54.974Z,50.37
2018-09-29T11:38:59.008Z,49.88
2018-09-29T11:40:03.090Z,50.14
2018-09-29T11:41:07.710Z,50.31
2018-09-29T11:42:11.214Z,49.68
2018-09-29T11:43:14.665Z,50.07
2018-09-29T11:44:18.276Z,50.38
2018-09-29T11:45:21.683Z,49.98
2018-09-29T11:46:25.117Z,50.25
2018-09-29T11:47:28.689Z,50.31
2018-09-29T11:48:34.369Z,50.16
2018-09-29T11:49:38.683Z,50.11
2018-09-29T11:50:42.153Z,50.50
2018-09-29T11:51:45.703Z,50.29
2018-09-29T11:52:49.138Z,50.68
2018-09-29T11:53:52.659Z,50.06
2018-09-29T11:54:56.107Z,50.71
2018-09-29T11:55:59.552Z,50.43
2018-09-29T11:57:03.085Z,50.28
2018-09-29T11:58:06.632Z,50.13
2018-09-29T11:59:10.128Z,50.63
2018-09-29T12:00:13.639Z,50.68
2018-09-29T12:01:17.133Z,50.46
2018-09-29T12:02:20.913Z,50.73
2018-09-29T12:03:24.236Z,50.74
2018-09-29T12:04:27.703Z,50.85
2018-09-29T12:05:31.148Z,51.13
2018-09-29T12:06:34.582Z,50.40
2018-09-29T12:07:38.088Z,50.81
2018-09-29T12:08:41.529Z,51.24
2018-09-29T12:09:44.999Z,50.44
2018-09-29T12:10:48.527Z,50.56
2018-09-29T12:11:52.071Z,50.95
2018-09-29T12:12:55.476Z,50.63
2018-09-29T12:13:58.967Z,50.63
2018-09-29T12:15:02.410Z,51.05
2018-09-29T12:16:05.886Z,50.67
2018-09-29T12:17:09.357Z,50.55
2018-09-29T12:18:12.772Z,50.77
2018-09-29T12:19:16.270Z,50.65
2018-09-29T12:20:19.724Z,51.08
2018-09-29T12:21:23.146Z,50.91
2018-09-29T12:22:27.048Z,50.80
2018-09-29T12:23:30.473Z,51.43
2018-09-29T12:24:33.945Z,51.44
2018-09-29T12:25:37.421Z,50.88
2018-09-29T12:26:40.841Z,50.75
2018-09-29T12:27:44.281Z,51.00
2018-09-29T12:28:47.724Z,50.87
2018-09-29T12:29:51.196Z,51.44
2018-09-29T12:30:54.690Z,51.11
2018-09-29T12:31:58.383Z,50.93
2018-09-29T12:33:01.830Z,51.51
2018-09-29T12:34:05.412Z,51.62
2018-09-29T12:35:08.863Z,51.40
2018-09-29T12:36:12.315Z,50.93
2018-09-29T12:37:16.012Z,51.26
2018-09-29T12:38:19.298Z,51.20
2018-09-29T12:39:22.736Z,51.05
2018-09-29T12:40:26.181Z,51.63
2018-09-29T12:41:29.700Z,50.91
2018-09-29T12:42:33.156Z,51.02
2018-09-29T12:43:36.642Z,51.68
2018-09-29T12:44:40.109Z,51.42
2018-09-29T12:45:43.471Z,51.18
2018-09-29T12:46:46.971Z,51.26
2018-09-29T12:47:50.426Z,51.51
2018-09-29T12:48:53.954Z,50.88
2018-09-29T12:49:57.410Z,50.79
2018-09-29T12:51:01.078Z,51.23
2018-09-29T12:52:04.622Z,50.46
2018-09-29T12:53:08.022Z,50.52
2018-09-29T12:54:11.484Z,50.35
2018-09-29T12:55:14.940Z,50.97
2018-09-29T12:56:18.427Z,50.92
2018-09-29T12:57:22.557Z,50.19
2018-09-29T12:58:25.970Z,50.76
2018-09-29T12:59:29.552Z,50.29
2018-09-29T13:00:33.015Z,50.32
2018-09-29T13:01:36.431Z,50.76
2018-09-29T13:02:39.914Z,50.70
2018-09-29T13:03:43.342Z,49.89
2018-09-29T13:04:46.917Z,50.55
2018-09-29T13:05:50.445Z,49.92
2018-09-29T13:06:53.915Z,50.23
2018-09-29T13:07:57.626Z,50.34
2018-09-29T13:09:01.075Z,50.72
2018-09-29T13:10:04.556Z,50.13
2018-09-29T13:11:08.126Z,50.40
2018-09-29T13:12:11.614Z,50.12
2018-09-29T13:13:15.090Z,50.25
2018-09-29T13:14:18.530Z,50.50
2018-09-29T13:15:21.963Z,50.31
2018-09-29T13:16:25.430Z,49.97
2018-09-29T13:17:28.897Z,49.97
2018-09-29T13:18:32.350Z,49.68
2018-09-29T13:19:35.787Z,49.70
2018-09-29T13:20:39.219Z,50.24
2018-09-29T13:21:42.641Z,49.99
2018-09-29T13:22:46.154Z,49.44
2018-09-29T13:23:49.634Z,49.42
2018-09-29T13:24:53.065Z,49.35
2018-09-29T13:25:56.479Z,49.63
2018-09-29T13:26:59.937Z,49.65
2018-09-29T13:28:03.413Z,49.35
2018-09-29T13:29:06.884Z,49.12
2018-09-29T13:30:10.360Z,49.00
2018-09-29T13:31:13.752Z,49.25
2018-09-29T13:32:17.272Z,49.19
2018-09-29T13:33:20.704Z,49.45
2018-09-29T13:34:24.366Z,49.00
2018-09-29T13:35:27.829Z,49.07
2018-09-29T13:36:31.300Z,48.08
2018-09-29T13:37:34.783Z,48.15
2018-09-29T13:38:38.234Z,47.73